This is the latest recevied weather packets stored in our database for station/object K2ATL. If no packets are shown the sender has not sent any weather packets the latest 10 day(s).
| Time | Temp. | Humidity | Pressure | Rain* | Wind** | Luminosity | Snow |
|---|---|---|---|---|---|---|---|
| 1787780920 | 26.67° C | 67% | 1102.4 hPa | 0 mm | - | 181 W/m² | - |
| 1787780615 | 26.67° C | 68% | 1102.4 hPa | 0 mm | - | 223 W/m² | - |
| 1787780310 | 26.67° C | 63% | 1102.4 hPa | 0 mm | - | 232 W/m² | - |
| 1787780006 | 26.67° C | 64% | 1102.4 hPa | 0 mm | - | 228 W/m² | - |
| 1787779701 | 26.11° C | 64% | 1102.4 hPa | 0 mm | - | 247 W/m² | - |
| 1787779400 | 27.22° C | 61% | 1102.4 hPa | 0 mm | - | 235 W/m² | - |
| 1787779095 | 27.78° C | 61% | 1102.5 hPa | 0 mm | - | 216 W/m² | - |
| 1787778795 | 27.22° C | 61% | 1102.6 hPa | 0 mm | - | 299 W/m² | - |
| 1787778492 | 26.11° C | 64% | 1102.4 hPa | 0 mm | - | 426 W/m² | - |
| 1787778187 | 27.22° C | 60% | 1102.5 hPa | 0 mm | - | 454 W/m² | - |
| 1787777886 | 26.67° C | 60% | 1102.5 hPa | 0 mm | - | 394 W/m² | - |
| 1787777582 | 26.67° C | 55% | 1102.5 hPa | 0 mm | - | 265 W/m² | - |
| 1787777277 | 26.67° C | 61% | 1102.5 hPa | 0 mm | - | 440 W/m² | - |
| 1787776977 | 27.78° C | 62% | 1102.5 hPa | 0 mm | - | 555 W/m² | - |
| 1787776676 | 27.78° C | 59% | 1102.4 hPa | 0 mm | - | 525 W/m² | - |
| 1787776375 | 27.22° C | 56% | 1102.6 hPa | 0 mm | - | 585 W/m² | - |
| 1787776073 | 27.22° C | 58% | 1102.6 hPa | 0 mm | - | 634 W/m² | - |
| 1787775774 | 27.22° C | 61% | 1102.5 hPa | 0 mm | - | 641 W/m² | - |
| 1787775473 | 27.22° C | 61% | 1102.4 hPa | 0 mm | - | 605 W/m² | - |
| 1787775171 | 27.22° C | 60% | 1102.6 hPa | 0 mm | - | 489 W/m² | - |
| 1787774866 | 27.22° C | 64% | 1102.5 hPa | 0 mm | - | 525 W/m² | - |
| 1787774565 | 27.22° C | 63% | 1102.5 hPa | 0 mm | - | 584 W/m² | - |
| 1787774264 | 27.22° C | 62% | 1102.5 hPa | 0 mm | - | 615 W/m² | - |
| 1787773964 | 26.11° C | 67% | 1102.7 hPa | 0 mm | - | 643 W/m² | - |
| 1787773663 | 27.78° C | 60% | 1102.7 hPa | 0 mm | - | 661 W/m² | - |
* Rain latest hour (hover to see other rain measurements)
** Current wind speed in m/s (hover to see current wind gust speed)